createdAt,value
2023-08-01T00:02:00.834Z,3.03
2023-08-01T00:04:42.308Z,4.32
2023-08-01T00:07:12.680Z,1.58
2023-08-01T00:10:04.747Z,0.93
2023-08-01T00:12:37.295Z,1.55
2023-08-01T00:15:09.664Z,1.48
2023-08-01T00:17:50.004Z,3.65
2023-08-01T00:20:21.904Z,2.65
2023-08-01T00:22:56.642Z,1.90
2023-08-01T00:25:31.870Z,2.35
2023-08-01T00:28:02.030Z,2.08
2023-08-01T00:30:37.795Z,2.30
2023-08-01T00:33:11.456Z,3.38
2023-08-01T00:35:45.631Z,2.15
2023-08-01T00:38:20.048Z,1.60
2023-08-01T00:40:49.662Z,3.20
2023-08-01T00:43:20.739Z,3.42
2023-08-01T00:45:55.005Z,3.17
2023-08-01T00:48:23.532Z,2.40
2023-08-01T00:50:57.227Z,5.18
2023-08-01T00:53:29.948Z,3.85
2023-08-01T00:56:07.416Z,2.75
2023-08-01T00:58:38.512Z,2.33
2023-08-01T01:01:12.198Z,4.43
2023-08-01T01:03:42.970Z,4.93
2023-08-01T01:06:22.616Z,4.68
2023-08-01T01:08:55.147Z,3.45
2023-08-01T01:11:32.719Z,5.75
2023-08-01T01:14:14.098Z,3.22
2023-08-01T01:16:52.492Z,4.57
2023-08-01T01:19:23.918Z,4.10
2023-08-01T01:22:06.582Z,5.72
2023-08-01T01:24:36.103Z,3.92
2023-08-01T01:27:06.251Z,4.25
2023-08-01T01:29:37.909Z,4.25
2023-08-01T01:32:07.250Z,2.95
2023-08-01T01:34:35.354Z,3.67
2023-08-01T01:37:05.213Z,3.63
2023-08-01T01:39:33.546Z,4.65
2023-08-01T01:42:01.842Z,2.45
2023-08-01T01:44:30.243Z,4.93
2023-08-01T01:46:58.559Z,5.32
2023-08-01T01:49:27.357Z,6.28
2023-08-01T01:51:57.031Z,6.05
2023-08-01T01:54:29.188Z,4.55
2023-08-01T01:56:57.463Z,4.88
2023-08-01T01:59:26.185Z,3.97
2023-08-01T02:01:54.272Z,4.43
2023-08-01T02:04:22.931Z,5.93
2023-08-01T02:06:51.090Z,4.28
2023-08-01T02:09:20.827Z,6.57
2023-08-01T02:11:50.406Z,4.70
2023-08-01T02:14:18.851Z,8.55
2023-08-01T02:16:47.138Z,5.38
2023-08-01T02:19:15.464Z,5.63
2023-08-01T02:21:44.429Z,5.75
2023-08-01T02:24:12.614Z,6.63
2023-08-01T02:26:41.239Z,5.57
2023-08-01T02:29:11.121Z,6.63
2023-08-01T02:31:39.393Z,7.32
2023-08-01T02:34:10.711Z,8.55
2023-08-01T02:36:39.274Z,4.45
2023-08-01T02:39:09.333Z,6.32
2023-08-01T02:41:38.141Z,6.43
2023-08-01T02:44:07.077Z,6.22
2023-08-01T02:46:37.037Z,4.65
2023-08-01T02:49:08.397Z,7.68
2023-08-01T02:51:42.807Z,6.75
2023-08-01T02:54:11.105Z,7.00
2023-08-01T02:56:42.739Z,6.63
2023-08-01T02:59:13.773Z,8.23
2023-08-01T03:01:43.496Z,8.93
2023-08-01T03:04:12.985Z,6.40
2023-08-01T03:06:41.776Z,9.73
2023-08-01T03:09:10.118Z,7.53
2023-08-01T03:11:39.184Z,8.70
2023-08-01T03:14:07.305Z,5.97
2023-08-01T03:16:39.056Z,10.38
2023-08-01T03:19:17.872Z,6.28
2023-08-01T03:21:51.406Z,7.68
2023-08-01T03:24:21.787Z,9.15
2023-08-01T03:26:53.284Z,8.43
2023-08-01T03:29:23.529Z,9.73
2023-08-01T03:31:52.559Z,9.02
2023-08-01T03:34:35.261Z,10.82
2023-08-01T03:37:05.924Z,8.88
2023-08-01T03:39:37.475Z,7.35
2023-08-01T03:42:09.396Z,10.60
2023-08-01T03:44:39.006Z,7.18
2023-08-01T03:47:13.123Z,6.65
2023-08-01T03:49:42.941Z,8.77
2023-08-01T03:52:15.831Z,10.30
2023-08-01T03:54:46.145Z,9.43
2023-08-01T03:57:19.537Z,6.88
2023-08-01T03:59:51.876Z,8.50
2023-08-01T04:02:22.152Z,7.97
2023-08-01T04:04:54.279Z,9.50
2023-08-01T04:07:22.980Z,8.95
2023-08-01T04:09:51.347Z,5.30
2023-08-01T04:12:20.775Z,7.07
2023-08-01T04:14:52.024Z,8.98
2023-08-01T04:17:39.005Z,9.13
2023-08-01T04:20:34.660Z,8.20
2023-08-01T04:23:24.744Z,8.98
2023-08-01T04:26:19.689Z,7.13
2023-08-01T04:29:07.571Z,7.10
2023-08-01T04:32:02.230Z,6.65
2023-08-01T04:34:48.995Z,8.52
2023-08-01T04:37:38.468Z,8.52
2023-08-01T04:40:30.513Z,9.80
2023-08-01T04:43:20.778Z,11.63
2023-08-01T04:46:14.899Z,8.57
2023-08-01T04:49:15.247Z,10.45
2023-08-01T04:52:09.669Z,11.48
2023-08-01T04:55:13.933Z,12.43
2023-08-01T04:58:08.310Z,9.52
2023-08-01T05:00:57.627Z,9.25
2023-08-01T05:03:49.358Z,11.10
2023-08-01T05:06:40.236Z,6.45
2023-08-01T05:09:32.056Z,7.35
2023-08-01T05:12:24.080Z,9.18
2023-08-01T05:14:52.825Z,7.97
2023-08-01T05:17:21.242Z,9.68
2023-08-01T05:19:49.575Z,6.55
2023-08-01T05:22:20.080Z,6.85
2023-08-01T05:24:53.614Z,4.10
2023-08-01T05:27:25.060Z,7.35
2023-08-01T05:29:53.893Z,7.00
2023-08-01T05:32:22.098Z,10.13
2023-08-01T05:34:51.685Z,11.60
2023-08-01T05:37:21.520Z,9.32
2023-08-01T05:39:49.854Z,7.43
2023-08-01T05:42:20.178Z,8.48
2023-08-01T05:44:52.736Z,8.43
2023-08-01T05:47:21.418Z,9.18
2023-08-01T05:49:55.402Z,9.77
2023-08-01T05:52:40.877Z,6.55
2023-08-01T05:55:11.121Z,7.70
2023-08-01T05:57:39.277Z,7.70
2023-08-01T06:00:15.343Z,7.75
2023-08-01T06:02:45.896Z,9.27
2023-08-01T06:05:17.930Z,9.07
2023-08-01T06:07:48.670Z,7.53
2023-08-01T06:10:25.512Z,6.25
2023-08-01T06:12:58.848Z,8.23
2023-08-01T06:15:56.022Z,8.35
2023-08-01T06:18:26.368Z,7.50
2023-08-01T06:20:57.080Z,4.82
2023-08-01T06:23:30.785Z,7.55
2023-08-01T06:26:01.320Z,8.82
2023-08-01T06:28:32.397Z,9.48
2023-08-01T06:31:06.498Z,9.23
2023-08-01T06:33:34.835Z,8.23
2023-08-01T06:36:03.652Z,7.47
2023-08-01T06:38:46.779Z,8.82
2023-08-01T06:41:15.676Z,7.90
2023-08-01T06:43:45.378Z,9.85
2023-08-01T06:46:21.134Z,7.68
2023-08-01T06:49:09.669Z,10.25
2023-08-01T06:51:45.708Z,12.38
2023-08-01T06:54:16.183Z,6.00
2023-08-01T06:56:48.941Z,10.15
2023-08-01T06:59:20.780Z,5.60
2023-08-01T07:01:51.727Z,10.48
2023-08-01T07:04:20.724Z,10.25
2023-08-01T07:06:51.485Z,8.10
2023-08-01T07:09:19.833Z,6.82
2023-08-01T07:11:53.156Z,10.18
2023-08-01T07:14:27.355Z,9.85
2023-08-01T07:17:12.193Z,8.57
2023-08-01T07:19:40.509Z,6.57
2023-08-01T07:22:12.769Z,8.15
2023-08-01T07:24:41.559Z,6.82
2023-08-01T07:27:10.145Z,8.05
2023-08-01T07:29:42.004Z,9.35
2023-08-01T07:32:12.712Z,10.32
2023-08-01T07:34:41.709Z,6.10
2023-08-01T07:37:11.893Z,9.32
2023-08-01T07:39:41.222Z,6.00
2023-08-01T07:42:29.514Z,6.57
2023-08-01T07:45:05.822Z,5.35
2023-08-01T07:47:39.588Z,6.82
2023-08-01T07:50:09.085Z,10.35
2023-08-01T07:52:44.833Z,10.07
2023-08-01T07:55:30.891Z,11.23
2023-08-01T07:58:26.672Z,5.88
2023-08-01T08:00:59.255Z,9.10
2023-08-01T08:03:57.390Z,10.90
2023-08-01T08:06:42.196Z,5.50
2023-08-01T08:09:22.058Z,6.15
2023-08-01T08:12:04.229Z,8.80
2023-08-01T08:14:53.641Z,7.60
2023-08-01T08:17:25.437Z,8.50
2023-08-01T08:20:19.398Z,5.65
2023-08-01T08:22:57.204Z,6.55
2023-08-01T08:25:51.148Z,8.25
2023-08-01T08:28:51.625Z,6.30
2023-08-01T08:31:23.529Z,5.40
2023-08-01T08:34:16.960Z,8.63
2023-08-01T08:37:08.305Z,5.30
2023-08-01T08:40:53.471Z,4.38
2023-08-01T08:44:00.788Z,4.47
2023-08-01T08:46:39.586Z,7.57
2023-08-01T08:49:28.219Z,6.97
2023-08-01T08:52:23.458Z,9.55
2023-08-01T08:55:38.735Z,5.88
2023-08-01T08:58:19.995Z,7.32
2023-08-01T09:04:16.513Z,3.80
2023-08-01T09:07:16.130Z,5.55
2023-08-01T09:10:54.846Z,5.07
2023-08-01T09:13:58.681Z,4.43
2023-08-01T09:17:08.233Z,5.07
2023-08-01T09:20:02.500Z,4.20
2023-08-01T09:22:57.683Z,4.60
2023-08-01T09:25:50.481Z,4.43
2023-08-01T09:31:38.001Z,5.88
2023-08-01T09:34:31.692Z,4.85
2023-08-01T09:37:13.445Z,4.00
2023-08-01T09:40:00.104Z,3.72
2023-08-01T09:42:54.080Z,2.83
2023-08-01T09:45:55.374Z,3.60
2023-08-01T09:56:39.152Z,5.18
2023-08-01T10:03:35.144Z,5.70
2023-08-01T10:06:47.720Z,3.80
2023-08-01T10:12:30.437Z,5.43
2023-08-01T10:15:50.352Z,4.65
2023-08-01T10:19:07.092Z,3.20
2023-08-01T10:32:11.140Z,6.57
2023-08-01T10:34:56.860Z,8.15
2023-08-01T10:38:20.050Z,6.63
2023-08-01T10:49:28.011Z,3.88
2023-08-01T10:56:38.669Z,4.45
2023-08-01T10:59:39.280Z,5.53
2023-08-01T11:02:43.383Z,6.47
2023-08-01T11:06:06.864Z,6.10
2023-08-01T11:12:30.037Z,3.70
2023-08-01T11:15:31.509Z,3.22
2023-08-01T11:18:17.844Z,8.38
2023-08-01T11:21:14.975Z,3.75
2023-08-01T11:23:58.096Z,3.63
2023-08-01T11:26:51.414Z,5.20
2023-08-01T11:30:00.430Z,4.05
2023-08-01T11:32:48.223Z,5.68
2023-08-01T11:35:27.427Z,3.30
2023-08-01T11:38:06.227Z,5.85
2023-08-01T11:40:38.514Z,5.50
2023-08-01T11:43:22.095Z,4.45
2023-08-01T11:46:55.208Z,3.35
2023-08-01T11:53:41.210Z,3.28
2023-08-01T11:56:47.925Z,2.25
2023-08-01T12:00:04.068Z,3.55
2023-08-01T12:02:47.482Z,4.88
2023-08-01T12:05:38.387Z,5.47
2023-08-01T12:08:43.853Z,1.45
2023-08-01T12:11:52.095Z,2.55
2023-08-01T12:14:45.606Z,3.88
2023-08-01T12:17:39.344Z,4.20
2023-08-01T12:20:53.828Z,3.08
2023-08-01T12:27:37.465Z,2.75
2023-08-01T12:30:41.448Z,3.45
2023-08-01T12:33:32.735Z,3.13
2023-08-01T12:36:36.962Z,1.60
2023-08-01T12:39:29.780Z,6.78
2023-08-01T12:43:16.137Z,2.22
2023-08-01T12:56:39.450Z,3.63
2023-08-01T12:59:45.561Z,3.58
2023-08-01T13:03:12.774Z,3.30
2023-08-01T13:05:56.250Z,5.05
2023-08-01T13:09:17.561Z,2.72
2023-08-01T13:12:52.451Z,5.28
2023-08-01T13:19:37.715Z,3.15
2023-08-01T13:22:48.579Z,3.03
2023-08-01T13:26:03.277Z,5.35
2023-08-01T13:28:49.959Z,6.13
2023-08-01T13:31:53.055Z,5.38
2023-08-01T13:35:07.074Z,13.20
2023-08-01T13:37:46.551Z,2.95
2023-08-01T14:10:41.437Z,6.40
2023-08-01T14:13:50.625Z,4.93
2023-08-01T14:20:50.944Z,2.60
2023-08-01T14:30:47.878Z,5.30
2023-08-01T14:33:15.982Z,5.00
2023-08-01T14:35:44.172Z,5.35
2023-08-01T14:38:12.296Z,4.72
2023-08-01T14:40:43.395Z,3.70
2023-08-01T14:43:13.447Z,6.40
2023-08-01T14:45:41.787Z,5.55
2023-08-01T14:48:11.149Z,4.68
2023-08-01T14:50:40.322Z,3.25
2023-08-01T14:53:09.102Z,3.35
2023-08-01T14:55:37.441Z,2.65
2023-08-01T14:58:06.341Z,5.03
2023-08-01T15:00:37.117Z,3.63
2023-08-01T15:03:05.407Z,5.75
2023-08-01T15:05:36.276Z,5.10
2023-08-01T15:08:06.754Z,4.10
2023-08-01T15:10:34.766Z,8.60
2023-08-01T15:13:02.749Z,5.90
2023-08-01T15:15:30.635Z,6.25
2023-08-01T15:17:58.559Z,4.55
2023-08-01T15:20:26.524Z,5.63
2023-08-01T15:22:55.866Z,5.20
2023-08-01T15:25:23.855Z,5.88
2023-08-01T15:27:51.888Z,6.32
2023-08-01T15:30:21.063Z,8.57
2023-08-01T15:32:49.064Z,5.63
2023-08-01T15:35:17.147Z,7.15
2023-08-01T15:37:45.137Z,3.67
2023-08-01T15:40:14.549Z,4.28
2023-08-01T15:42:42.574Z,9.07
2023-08-01T15:45:11.208Z,4.57
2023-08-01T15:47:39.151Z,6.03
2023-08-01T15:50:07.690Z,5.68
2023-08-01T15:52:35.719Z,7.05
2023-08-01T15:55:03.817Z,5.78
2023-08-01T15:57:33.171Z,6.18
2023-08-01T16:00:01.829Z,3.50
2023-08-01T16:02:29.856Z,6.28
2023-08-01T16:04:57.820Z,4.40
2023-08-01T16:07:25.856Z,4.55
2023-08-01T16:09:53.727Z,6.35
2023-08-01T16:12:21.647Z,3.17
2023-08-01T16:14:51.079Z,4.18
2023-08-01T16:17:19.100Z,5.65
2023-08-01T16:19:47.135Z,5.63
2023-08-01T16:22:15.346Z,3.67
2023-08-01T16:24:43.475Z,4.82
2023-08-01T16:27:11.490Z,2.38
2023-08-01T16:29:39.363Z,2.75
2023-08-01T16:32:09.448Z,3.53
2023-08-01T16:34:37.301Z,3.65
2023-08-01T16:37:06.032Z,3.20
2023-08-01T16:39:33.939Z,2.40
2023-08-01T16:42:02.013Z,3.20
2023-08-01T16:44:29.909Z,4.68
2023-08-01T16:46:58.233Z,4.38
2023-08-01T16:49:27.829Z,3.28
2023-08-01T16:51:55.796Z,4.88
2023-08-01T16:54:23.753Z,8.75
2023-08-01T16:56:51.705Z,5.63
2023-08-01T16:59:19.665Z,5.72
2023-08-01T17:01:47.710Z,4.57
2023-08-01T17:04:15.898Z,3.63
2023-08-01T17:06:46.535Z,4.53
2023-08-01T17:09:14.615Z,4.35
2023-08-01T17:11:42.552Z,4.72
2023-08-01T17:14:10.523Z,5.07
2023-08-01T17:16:38.909Z,7.38
2023-08-01T17:19:07.121Z,9.95
2023-08-01T17:21:35.296Z,7.20
2023-08-01T17:24:04.959Z,6.85
2023-08-01T17:26:33.001Z,7.50
2023-08-01T17:29:00.964Z,7.80
2023-08-01T17:31:32.922Z,5.55
2023-08-01T17:34:00.994Z,6.25
2023-08-01T17:36:29.343Z,6.30
2023-08-01T17:38:57.646Z,5.40
2023-08-01T17:41:28.242Z,6.50
2023-08-01T17:43:57.696Z,5.53
2023-08-01T17:46:26.470Z,8.00
2023-08-01T17:48:54.684Z,4.80
2023-08-01T17:51:22.808Z,8.63
2023-08-01T17:53:51.019Z,4.93
2023-08-01T17:56:19.842Z,6.95
2023-08-01T17:58:49.116Z,5.78
2023-08-01T18:01:17.373Z,6.75
2023-08-01T18:03:45.366Z,4.95
2023-08-01T18:06:14.919Z,6.38
2023-08-01T18:08:44.274Z,4.20
2023-08-01T18:11:13.489Z,4.75
2023-08-01T18:13:41.887Z,10.23
2023-08-01T18:16:11.391Z,5.65
2023-08-01T18:18:39.499Z,5.38
2023-08-01T18:21:08.765Z,4.28
2023-08-01T18:23:37.406Z,3.47
2023-08-01T18:26:05.828Z,6.28
2023-08-01T18:28:34.009Z,4.93
2023-08-01T18:31:08.804Z,5.88
2023-08-01T18:33:39.883Z,5.00
2023-08-01T18:36:12.335Z,6.10
2023-08-01T18:38:40.844Z,6.40
2023-08-01T18:41:08.889Z,4.85
2023-08-01T18:43:37.445Z,3.53
2023-08-01T18:46:05.887Z,5.85
2023-08-01T18:48:34.101Z,4.97
2023-08-01T18:51:11.600Z,8.80
2023-08-01T18:53:39.712Z,7.72
2023-08-01T18:56:11.685Z,6.13
2023-08-01T18:58:41.239Z,6.18
2023-08-01T19:01:15.243Z,6.32
2023-08-01T19:03:43.733Z,8.05
2023-08-01T19:06:13.326Z,6.45
2023-08-01T19:08:41.354Z,3.33
2023-08-01T19:11:09.341Z,3.80
2023-08-01T19:13:37.243Z,6.47
2023-08-01T19:16:05.654Z,7.47
2023-08-01T19:18:33.807Z,4.03
2023-08-01T19:21:02.499Z,4.03
2023-08-01T19:23:32.289Z,5.03
2023-08-01T19:26:07.807Z,7.82
2023-08-01T19:28:36.018Z,4.75
2023-08-01T19:31:04.097Z,6.10
2023-08-01T19:33:32.020Z,4.07
2023-08-01T19:36:00.181Z,4.53
2023-08-01T19:38:28.100Z,4.28
2023-08-01T19:41:00.261Z,4.25
2023-08-01T19:43:30.089Z,6.60
2023-08-01T19:45:58.963Z,3.50
2023-08-01T19:48:27.021Z,5.03
2023-08-01T19:50:56.096Z,4.03
2023-08-01T19:53:25.601Z,2.88
2023-08-01T19:55:57.721Z,6.60
2023-08-01T19:58:26.262Z,4.07
2023-08-01T20:00:54.236Z,4.70
2023-08-01T20:03:22.528Z,4.97
2023-08-01T20:05:50.615Z,3.65
2023-08-01T20:08:18.536Z,4.43
2023-08-01T20:10:46.594Z,5.00
2023-08-01T20:13:15.908Z,5.97
2023-08-01T20:15:43.835Z,4.55
2023-08-01T20:18:11.768Z,3.72
2023-08-01T20:20:39.742Z,7.75
2023-08-01T20:23:07.820Z,4.78
2023-08-01T20:25:37.747Z,3.55
2023-08-01T20:28:06.317Z,5.93
2023-08-01T20:30:36.382Z,3.85
2023-08-01T20:33:04.488Z,4.40
2023-08-01T20:35:32.672Z,4.18
2023-08-01T20:38:00.549Z,4.07
2023-08-01T20:40:28.445Z,5.60
2023-08-01T20:42:56.352Z,7.35
2023-08-01T20:45:24.717Z,3.28
2023-08-01T20:47:54.196Z,3.20
2023-08-01T20:50:22.305Z,3.75
2023-08-01T20:52:50.252Z,4.78
2023-08-01T20:55:18.568Z,3.20
2023-08-01T20:57:49.164Z,4.38
2023-08-01T21:00:17.512Z,3.53
2023-08-01T21:02:45.475Z,3.85
2023-08-01T21:05:15.063Z,3.72
2023-08-01T21:07:43.060Z,5.57
2023-08-01T21:10:11.653Z,2.50
2023-08-01T21:12:39.558Z,3.92
2023-08-01T21:15:08.328Z,3.35
2023-08-01T21:17:36.552Z,2.10
2023-08-01T21:20:05.966Z,3.90
2023-08-01T21:22:35.271Z,3.67
2023-08-01T21:25:03.308Z,3.53
2023-08-01T21:27:31.334Z,2.92
2023-08-01T21:29:59.318Z,4.90
2023-08-01T21:32:27.281Z,2.47
2023-08-01T21:34:55.168Z,2.78
2023-08-01T21:37:23.259Z,2.35
2023-08-01T21:39:52.662Z,1.15
2023-08-01T21:42:21.102Z,3.72
2023-08-01T21:44:50.094Z,2.58
2023-08-01T21:47:18.037Z,2.08
2023-08-01T21:49:46.173Z,5.07
2023-08-01T21:52:14.098Z,3.20
2023-08-01T21:54:42.271Z,1.30
2023-08-01T21:57:11.550Z,2.58
2023-08-01T21:59:39.505Z,2.45
2023-08-01T22:02:08.031Z,4.43
2023-08-01T22:04:36.004Z,4.53
2023-08-01T22:07:04.008Z,3.72
2023-08-01T22:09:35.569Z,5.20
2023-08-01T22:12:03.604Z,2.30
2023-08-01T22:14:32.966Z,1.92
2023-08-01T22:17:00.867Z,3.42
2023-08-01T22:19:28.808Z,2.92
2023-08-01T22:21:56.728Z,3.33
2023-08-01T22:24:24.689Z,3.35
2023-08-01T22:26:53.055Z,4.50
2023-08-01T22:29:21.008Z,3.42
2023-08-01T22:31:50.312Z,5.35
2023-08-01T22:34:18.243Z,4.05
2023-08-01T22:36:47.124Z,4.57
2023-08-01T22:39:15.633Z,5.30
2023-08-01T22:41:43.498Z,3.47
2023-08-01T22:44:12.178Z,5.45
2023-08-01T22:46:40.448Z,6.53
2023-08-01T22:49:12.117Z,4.68
2023-08-01T22:51:40.079Z,8.32
2023-08-01T22:54:08.088Z,4.72
2023-08-01T22:56:36.171Z,3.90
2023-08-01T22:59:04.099Z,5.38
2023-08-01T23:01:32.277Z,3.17
2023-08-01T23:04:00.302Z,4.75
2023-08-01T23:06:29.707Z,3.90
2023-08-01T23:08:58.928Z,5.40
2023-08-01T23:11:26.878Z,5.68
2023-08-01T23:13:54.888Z,3.92
2023-08-01T23:16:22.869Z,6.30
2023-08-01T23:18:53.651Z,3.70
2023-08-01T23:21:21.578Z,4.15
2023-08-01T23:23:50.897Z,8.52
2023-08-01T23:26:18.844Z,5.22
2023-08-01T23:28:46.772Z,4.90
2023-08-01T23:31:16.002Z,5.88
2023-08-01T23:33:44.086Z,6.25
2023-08-01T23:36:12.021Z,7.35
2023-08-01T23:38:39.948Z,2.75
2023-08-01T23:41:16.181Z,4.10
2023-08-01T23:43:44.106Z,5.45
2023-08-01T23:46:12.047Z,4.90
2023-08-01T23:48:41.771Z,4.70
2023-08-01T23:51:09.950Z,3.78
2023-08-01T23:53:37.909Z,4.60
2023-08-01T23:56:06.150Z,5.07
2023-08-01T23:58:36.544Z,3.50
